KCGI

Cape Girardeau Regional Airport

Airport
ICAO code
KCGI
IATA Code
CGI
Summary
ICAO Region
NAM
ICAO Territory
Location

Scott City, Missouri

Serving
Cape Girardeau
Elevation
342 ft
Coordinates
37° 13' 36" N , 89° 33' 53" W
KCC
Metar
KCGI 181753Z 19007KT 10SM FEW034 SCT045 27/21 A2994 RMK AO2 SLP137 T02670211 10267 20183 58021

Description

Cape Girardeau Regional Airport is a public-use airport in Scott County, Missouri. It located 5 nm southwest of the central business district of Cape Girardeau, a city in Cape Girardeau County, Missouri.

 

Airport map

Aerial View

SKYbrary Partners:

Safety knowledge contributed by: